Abrams, Wisconsin
Current Conditions -  °F | °C
As of 12:35 PM on Monday 20 Oct 2014 (Local Time) from KOCQ Reporting Station
Overcast Overcast  
Wind Chill: 52°   Ceiling: 4800
Heat Index: 52°   Visibility: 10mi
Dew Point: 43°   Wind: 9mph
Humidity: 73%   Direction: 330°NNW
Pressure: 29.86"   Gusts: NA
Location:  44.78°N, 88.06°W
Report Text: KOCQ 201735Z AUTO 33008KT 10SM OVC048 11/06 A2986 RMK AO1 T01090062
Loading
Personal Weather Stations






























Interactive Weather Map
Tropical Storm Tracking
New forecast layout! Learn more

10-Day Weather Forecast

Advertisements
Track Severe Weather on mobile